Terminal Aerodrome Forecast
Issued by NWS Cleveland, OH

Home | Current Version | Previous Version | Text Only | Print | Product List | Glossary Off
Versions: 1 2 3 4 5 6 7 8 9 10 11 12 13 14 15 16 17 18 19 20 21 22

000
FTUS41 KCLE 250604 AAA
TAFMFD
TAF AMD
KMFD 250604Z 2506/2606 25010KT P6SM -SHRA VCTS OVC015CB
      TEMPO 2506/2508 25010G18KT OVC009CB
     FM250800 25010G18KT P6SM FEW020 BKN080
      TEMPO 2508/2510 BKN015
     FM251200 25015G25KT P6SM OVC020
     FM260000 27012G20KT P6SM BKN020=

USA.gov is the U.S. government's official web portal to all federal, state and local government web resources and services.